createdAt,value
2023-04-03T00:00:20.602Z,41.86
2023-04-03T00:01:19.588Z,41.88
2023-04-03T00:02:20.669Z,41.85
2023-04-03T00:03:20.586Z,41.85
2023-04-03T00:04:20.649Z,41.80
2023-04-03T00:05:20.550Z,41.91
2023-04-03T00:06:20.547Z,41.86
2023-04-03T00:07:20.542Z,41.81
2023-04-03T00:08:20.533Z,41.87
2023-04-03T00:09:20.522Z,41.77
2023-04-03T00:10:20.555Z,41.73
2023-04-03T00:11:20.502Z,41.80
2023-04-03T00:12:20.498Z,41.81
2023-04-03T00:13:19.555Z,41.72
2023-04-03T00:14:20.496Z,41.76
2023-04-03T00:15:19.478Z,41.83
2023-04-03T00:16:20.558Z,41.83
2023-04-03T00:17:20.491Z,41.74
2023-04-03T00:18:20.468Z,41.76
2023-04-03T00:19:20.458Z,41.80
2023-04-03T00:20:20.444Z,41.65
2023-04-03T00:21:19.504Z,41.77
2023-04-03T00:22:19.437Z,41.70
2023-04-03T00:23:20.435Z,41.82
2023-04-03T00:24:20.428Z,41.78
2023-04-03T00:25:20.417Z,41.75
2023-04-03T00:26:19.475Z,41.86
2023-04-03T00:27:20.399Z,41.68
2023-04-03T00:28:19.397Z,41.78
2023-04-03T00:29:20.377Z,41.73
2023-04-03T00:30:20.385Z,41.74
2023-04-03T00:31:20.428Z,41.76
2023-04-03T00:32:20.367Z,41.77
2023-04-03T00:33:20.366Z,41.76
2023-04-03T00:34:20.353Z,41.72
2023-04-03T00:35:20.341Z,41.72
2023-04-03T00:36:20.433Z,41.66
2023-04-03T00:37:19.329Z,41.67
2023-04-03T00:38:20.349Z,41.71
2023-04-03T00:39:20.332Z,41.69
2023-04-03T00:40:20.306Z,41.74
2023-04-03T00:41:20.317Z,41.78
2023-04-03T00:42:20.329Z,41.77
2023-04-03T00:43:20.300Z,41.72
2023-04-03T00:44:19.279Z,41.67
2023-04-03T00:45:20.285Z,41.61
2023-04-03T00:46:20.290Z,41.69
2023-04-03T00:47:20.261Z,41.73
2023-04-03T00:48:20.249Z,41.69
2023-04-03T00:49:20.239Z,41.63
2023-04-03T00:50:20.256Z,41.63
2023-04-03T00:51:19.251Z,41.65
2023-04-03T00:52:20.231Z,41.71
2023-04-03T00:53:20.226Z,41.71
2023-04-03T00:54:20.220Z,41.80
2023-04-03T00:55:20.205Z,41.69
2023-04-03T00:56:20.210Z,41.61
2023-04-03T00:57:19.266Z,41.73
2023-04-03T00:58:19.211Z,41.63
2023-04-03T00:59:20.182Z,41.77
2023-04-03T01:00:20.174Z,41.75
2023-04-03T01:01:19.205Z,41.79
2023-04-03T01:02:20.164Z,41.69
2023-04-03T01:03:20.167Z,41.73
2023-04-03T01:04:20.169Z,41.64
2023-04-03T01:05:20.149Z,41.60
2023-04-03T01:06:20.152Z,41.70
2023-04-03T01:07:20.126Z,41.73
2023-04-03T01:08:20.134Z,41.65
2023-04-03T01:09:19.124Z,41.73
2023-04-03T01:10:20.112Z,41.67
2023-04-03T01:11:19.096Z,41.57
2023-04-03T01:12:19.116Z,41.67
2023-04-03T01:13:19.094Z,41.68
2023-04-03T01:14:19.234Z,41.64
2023-04-03T01:15:19.090Z,41.66
2023-04-03T01:16:20.148Z,41.64
2023-04-03T01:17:19.092Z,41.71
2023-04-03T01:18:20.052Z,41.64
2023-04-03T01:19:20.036Z,41.58
2023-04-03T01:20:20.042Z,41.61
2023-04-03T01:21:20.046Z,41.66
2023-04-03T01:22:20.022Z,41.66
2023-04-03T01:23:20.022Z,41.73
2023-04-03T01:24:20.006Z,41.62
2023-04-03T01:25:20.029Z,41.66
2023-04-03T01:26:20.003Z,41.69
2023-04-03T01:27:19.990Z,41.75
2023-04-03T01:28:19.990Z,41.69
2023-04-03T01:29:19.977Z,41.56
2023-04-03T01:30:19.995Z,41.51
2023-04-03T01:31:19.972Z,41.48
2023-04-03T01:32:18.966Z,41.58
2023-04-03T01:33:19.964Z,41.53
2023-04-03T01:34:19.952Z,41.55
2023-04-03T01:35:19.926Z,41.64
2023-04-03T01:36:19.942Z,41.53
2023-04-03T01:37:19.926Z,41.66
2023-04-03T01:38:19.926Z,41.61
2023-04-03T01:39:19.920Z,41.55
2023-04-03T01:40:19.893Z,41.66
2023-04-03T01:41:19.899Z,41.67
2023-04-03T01:42:19.901Z,41.69
2023-04-03T01:43:19.894Z,41.71
2023-04-03T01:44:19.877Z,41.70
2023-04-03T01:45:18.878Z,41.58
2023-04-03T01:46:19.912Z,41.71
2023-04-03T01:47:18.851Z,41.62
2023-04-03T01:48:19.856Z,41.57
2023-04-03T01:49:19.828Z,41.58
2023-04-03T01:50:19.835Z,41.66
2023-04-03T01:51:19.821Z,41.68
2023-04-03T01:52:19.814Z,41.66
2023-04-03T01:53:19.893Z,41.61
2023-04-03T01:54:19.840Z,41.68
2023-04-03T01:55:18.817Z,41.66
2023-04-03T01:56:18.799Z,41.70
2023-04-03T01:57:19.801Z,41.62
2023-04-03T01:58:19.776Z,41.62
2023-04-03T01:59:19.781Z,41.63
2023-04-03T02:00:19.788Z,41.68
2023-04-03T02:01:19.793Z,41.55
2023-04-03T02:02:19.777Z,41.57
2023-04-03T02:03:18.736Z,41.54
2023-04-03T02:04:19.743Z,41.60
2023-04-03T02:05:18.711Z,41.55
2023-04-03T02:06:19.730Z,41.77
2023-04-03T02:07:19.716Z,41.52
2023-04-03T02:08:18.705Z,41.54
2023-04-03T02:09:19.705Z,41.62
2023-04-03T02:10:19.687Z,41.59
2023-04-03T02:11:18.672Z,41.67
2023-04-03T02:12:19.688Z,41.57
2023-04-03T02:13:18.673Z,41.58
2023-04-03T02:14:19.665Z,41.54
2023-04-03T02:15:18.653Z,41.63
2023-04-03T02:16:18.649Z,41.54
2023-04-03T02:17:18.650Z,41.60
2023-04-03T02:18:19.659Z,41.49
2023-04-03T02:19:19.625Z,41.49
2023-04-03T02:20:18.608Z,41.46
2023-04-03T02:21:18.609Z,41.50
2023-04-03T02:22:19.598Z,41.56
2023-04-03T02:23:18.598Z,41.57
2023-04-03T02:24:19.580Z,41.49
2023-04-03T02:25:18.567Z,41.52
2023-04-03T02:26:19.558Z,41.58
2023-04-03T02:27:19.614Z,41.59
2023-04-03T02:28:18.558Z,41.44
2023-04-03T02:29:19.544Z,41.43
2023-04-03T02:30:19.563Z,41.52
2023-04-03T02:31:19.595Z,41.52
2023-04-03T02:32:18.547Z,41.53
2023-04-03T02:33:19.517Z,41.50
2023-04-03T02:34:19.523Z,41.60
2023-04-03T02:35:19.512Z,41.55
2023-04-03T02:36:19.503Z,41.54
2023-04-03T02:37:19.501Z,41.46
2023-04-03T02:38:19.508Z,41.46
2023-04-03T02:39:18.493Z,41.47
2023-04-03T02:40:19.476Z,41.48
2023-04-03T02:41:18.482Z,41.47
2023-04-03T02:42:19.453Z,41.52
2023-04-03T02:43:19.454Z,41.53
2023-04-03T02:44:19.445Z,41.53
2023-04-03T02:45:19.445Z,41.47
2023-04-03T02:46:18.522Z,41.43
2023-04-03T02:47:18.441Z,41.49
2023-04-03T02:48:19.436Z,41.44
2023-04-03T02:49:19.422Z,41.52
2023-04-03T02:50:19.447Z,41.48
2023-04-03T02:51:19.400Z,41.55
2023-04-03T02:52:18.428Z,41.61
2023-04-03T02:53:19.431Z,41.55
2023-04-03T02:54:18.431Z,41.52
2023-04-03T02:55:18.466Z,41.53
2023-04-03T02:56:18.429Z,41.53
2023-04-03T02:57:18.487Z,41.49
2023-04-03T02:58:19.452Z,41.46
2023-04-03T02:59:19.422Z,41.48
2023-04-03T03:00:19.425Z,41.41
2023-04-03T03:01:18.468Z,41.41
2023-04-03T03:02:19.439Z,41.43
2023-04-03T03:03:18.481Z,41.42
2023-04-03T03:04:18.459Z,41.49
2023-04-03T03:05:19.558Z,41.42
2023-04-03T03:06:19.469Z,41.43
2023-04-03T03:07:19.466Z,41.47
2023-04-03T03:08:18.445Z,41.56
2023-04-03T03:09:19.449Z,41.55
2023-04-03T03:10:19.461Z,41.56
2023-04-03T03:11:18.472Z,41.38
2023-04-03T03:12:19.469Z,41.39
2023-04-03T03:13:19.479Z,41.43
2023-04-03T03:14:18.471Z,41.44
2023-04-03T03:15:18.487Z,41.48
2023-04-03T03:16:19.505Z,41.53
2023-04-03T03:17:19.480Z,41.42
2023-04-03T03:18:18.454Z,41.51
2023-04-03T03:19:18.459Z,41.45
2023-04-03T03:20:19.477Z,41.54
2023-04-03T03:21:19.479Z,41.44
2023-04-03T03:22:18.516Z,41.44
2023-04-03T03:23:19.454Z,41.43
2023-04-03T03:24:19.457Z,41.48
2023-04-03T03:25:19.460Z,41.43
2023-04-03T03:26:19.484Z,41.39
2023-04-03T03:27:19.479Z,41.29
2023-04-03T03:28:19.464Z,41.40
2023-04-03T03:29:19.480Z,41.32
2023-04-03T03:30:19.484Z,41.29
2023-04-03T03:31:19.499Z,41.38
2023-04-03T03:32:19.884Z,41.53
2023-04-03T03:33:19.480Z,41.49
2023-04-03T03:34:19.478Z,41.29
2023-04-03T03:35:18.543Z,41.40
2023-04-03T03:36:19.532Z,41.44
2023-04-03T03:37:19.495Z,41.34
2023-04-03T03:38:18.506Z,41.44
2023-04-03T03:39:19.491Z,41.42
2023-04-03T03:40:19.516Z,41.50
2023-04-03T03:41:19.495Z,41.40
2023-04-03T03:42:18.496Z,41.39
2023-04-03T03:43:18.505Z,41.42
2023-04-03T03:44:18.473Z,41.38
2023-04-03T03:45:19.483Z,41.49
2023-04-03T03:46:18.509Z,41.46
2023-04-03T03:47:19.503Z,41.41
2023-04-03T03:48:19.474Z,41.30
2023-04-03T03:49:19.501Z,41.34
2023-04-03T03:50:19.488Z,41.31
2023-04-03T03:51:19.491Z,41.33
2023-04-03T03:52:19.484Z,41.30
2023-04-03T03:53:19.497Z,41.31
2023-04-03T03:54:19.515Z,41.33
2023-04-03T03:55:19.502Z,41.38
2023-04-03T03:56:18.473Z,41.42
2023-04-03T03:57:19.529Z,41.44
2023-04-03T03:58:19.489Z,41.38
2023-04-03T03:59:19.490Z,41.46
2023-04-03T04:00:19.491Z,41.37
2023-04-03T04:01:18.520Z,41.27
2023-04-03T04:02:19.529Z,41.32
2023-04-03T04:03:19.558Z,41.23
2023-04-03T04:04:19.714Z,41.29
2023-04-03T04:05:19.525Z,41.33
2023-04-03T04:06:19.532Z,41.37
2023-04-03T04:07:19.553Z,41.42
2023-04-03T04:08:19.541Z,41.38
2023-04-03T04:09:19.538Z,41.34
2023-04-03T04:10:19.573Z,41.36
2023-04-03T04:11:18.526Z,41.37
2023-04-03T04:12:19.543Z,41.34
2023-04-03T04:13:19.536Z,41.39
2023-04-03T04:14:19.533Z,41.25
2023-04-03T04:15:19.526Z,41.28
2023-04-03T04:16:19.558Z,41.31
2023-04-03T04:17:18.530Z,41.32
2023-04-03T04:18:19.549Z,41.34
2023-04-03T04:19:19.556Z,41.28
2023-04-03T04:20:19.549Z,41.35
2023-04-03T04:21:19.579Z,41.20
2023-04-03T04:22:19.570Z,41.30
2023-04-03T04:23:19.553Z,41.21
2023-04-03T04:24:19.594Z,41.31
2023-04-03T04:25:18.593Z,41.32
2023-04-03T04:26:18.601Z,41.25
2023-04-03T04:27:19.569Z,41.34
2023-04-03T04:28:19.581Z,41.34
2023-04-03T04:29:19.580Z,41.22
2023-04-03T04:30:19.574Z,41.34
2023-04-03T04:31:19.621Z,41.23
2023-04-03T04:32:19.592Z,41.37
2023-04-03T04:33:19.594Z,41.38
2023-04-03T04:34:18.609Z,41.28
2023-04-03T04:35:18.626Z,41.20
2023-04-03T04:36:19.676Z,41.13
2023-04-03T04:37:18.636Z,41.15
2023-04-03T04:38:19.594Z,41.17
2023-04-03T04:39:18.609Z,41.16
2023-04-03T04:40:18.626Z,41.19
2023-04-03T04:41:18.621Z,41.19
2023-04-03T04:42:18.630Z,41.21
2023-04-03T04:43:18.633Z,41.29
2023-04-03T04:44:18.619Z,41.19
2023-04-03T04:45:18.609Z,41.26
2023-04-03T04:46:19.655Z,41.28
2023-04-03T04:47:19.624Z,41.28
2023-04-03T04:48:18.659Z,41.20
2023-04-03T04:49:19.637Z,41.19
2023-04-03T04:50:18.631Z,41.26
2023-04-03T04:51:18.663Z,41.27
2023-04-03T04:52:19.654Z,41.21
2023-04-03T04:53:18.657Z,41.25
2023-04-03T04:54:18.675Z,41.31
2023-04-03T04:55:18.674Z,41.31
2023-04-03T04:56:19.671Z,41.27
2023-04-03T04:57:19.687Z,41.31
2023-04-03T04:58:19.705Z,41.18
2023-04-03T04:59:21.416Z,41.24
2023-04-03T05:00:19.667Z,41.17
2023-04-03T05:01:19.772Z,41.15
2023-04-03T05:02:19.665Z,41.10
2023-04-03T05:03:19.641Z,41.12
2023-04-03T05:04:18.897Z,41.20
2023-04-03T05:05:19.631Z,41.20
2023-04-03T05:06:18.634Z,41.12
2023-04-03T05:07:18.637Z,41.32
2023-04-03T05:08:18.619Z,41.30
2023-04-03T05:09:18.609Z,41.22
2023-04-03T05:10:19.604Z,41.16
2023-04-03T05:11:19.601Z,41.18
2023-04-03T05:12:18.585Z,41.13
2023-04-03T05:13:19.588Z,41.14
2023-04-03T05:14:19.595Z,41.16
2023-04-03T05:15:19.578Z,41.12
2023-04-03T05:16:19.667Z,41.22
2023-04-03T05:17:19.558Z,41.25
2023-04-03T05:18:19.545Z,41.30
2023-04-03T05:19:19.550Z,41.11
2023-04-03T05:20:18.523Z,41.06
2023-04-03T05:21:19.532Z,41.14
2023-04-03T05:22:19.538Z,41.17
2023-04-03T05:23:19.508Z,41.14
2023-04-03T05:24:19.508Z,41.19
2023-04-03T05:25:19.494Z,41.26
2023-04-03T05:26:19.485Z,41.23
2023-04-03T05:27:18.489Z,41.11
2023-04-03T05:28:19.497Z,41.17
2023-04-03T05:29:19.466Z,41.10
2023-04-03T05:30:19.496Z,41.09
2023-04-03T05:31:18.479Z,41.06
2023-04-03T05:32:19.453Z,41.11
2023-04-03T05:33:19.446Z,41.18
2023-04-03T05:34:18.435Z,41.00
2023-04-03T05:35:19.449Z,41.05
2023-04-03T05:36:18.479Z,41.17
2023-04-03T05:37:18.444Z,41.09
2023-04-03T05:38:19.419Z,41.10
2023-04-03T05:39:19.403Z,41.06
2023-04-03T05:40:19.419Z,41.01
2023-04-03T05:41:19.395Z,41.10
2023-04-03T05:42:18.386Z,41.02
2023-04-03T05:43:19.389Z,40.99
2023-04-03T05:44:19.366Z,41.06
2023-04-03T05:45:18.355Z,41.11
2023-04-03T05:46:19.526Z,41.02
2023-04-03T05:47:18.355Z,41.07
2023-04-03T05:48:18.341Z,41.04
2023-04-03T05:49:19.335Z,41.04
2023-04-03T05:50:19.338Z,41.10
2023-04-03T05:51:19.317Z,41.10
2023-04-03T05:52:19.310Z,41.05
2023-04-03T05:53:18.313Z,41.16
2023-04-03T05:54:19.289Z,41.11
2023-04-03T05:55:19.293Z,41.09
2023-04-03T05:56:19.284Z,41.12
2023-04-03T05:57:19.362Z,41.14
2023-04-03T05:58:19.266Z,40.98
2023-04-03T05:59:19.259Z,41.19
2023-04-03T06:00:19.264Z,41.13
2023-04-03T06:01:19.252Z,41.18
2023-04-03T06:02:19.281Z,41.26
2023-04-03T06:03:19.334Z,41.07
2023-04-03T06:04:19.392Z,41.14
2023-04-03T06:05:19.236Z,41.08
2023-04-03T06:06:19.225Z,41.16
2023-04-03T06:07:19.225Z,41.14
2023-04-03T06:08:19.195Z,41.12
2023-04-03T06:09:18.189Z,41.11
2023-04-03T06:10:19.192Z,41.06
2023-04-03T06:11:19.177Z,41.02
2023-04-03T06:12:19.188Z,41.02
2023-04-03T06:13:19.178Z,40.95
2023-04-03T06:14:18.158Z,40.92
2023-04-03T06:15:19.145Z,40.97
2023-04-03T06:16:19.180Z,40.98
2023-04-03T06:17:19.247Z,41.19
2023-04-03T06:18:19.155Z,41.06
2023-04-03T06:19:18.125Z,40.99
2023-04-03T06:20:19.110Z,41.07
2023-04-03T06:21:19.104Z,41.06
2023-04-03T06:22:19.116Z,41.03
2023-04-03T06:23:18.094Z,41.04
2023-04-03T06:24:19.078Z,41.12
2023-04-03T06:25:19.073Z,41.04
2023-04-03T06:26:19.059Z,41.06
2023-04-03T06:27:19.057Z,41.06
2023-04-03T06:28:19.053Z,40.94
2023-04-03T06:29:18.036Z,41.07
2023-04-03T06:30:19.051Z,41.03
2023-04-03T06:31:19.080Z,40.98
2023-04-03T06:32:19.026Z,41.03
2023-04-03T06:33:18.015Z,41.11
2023-04-03T06:34:19.067Z,41.06
2023-04-03T06:35:19.006Z,41.02
2023-04-03T06:36:18.998Z,40.98
2023-04-03T06:37:19.009Z,41.09
2023-04-03T06:38:19.039Z,41.09
2023-04-03T06:39:18.969Z,41.09
2023-04-03T06:40:18.964Z,41.03
2023-04-03T06:41:18.952Z,41.12
2023-04-03T06:42:17.954Z,41.12
2023-04-03T06:43:18.959Z,41.11
2023-04-03T06:44:18.960Z,41.09
2023-04-03T06:45:17.956Z,41.07
2023-04-03T06:46:18.946Z,41.13
2023-04-03T06:47:18.922Z,41.04
2023-04-03T06:48:18.902Z,41.04
2023-04-03T06:49:18.988Z,41.06
2023-04-03T06:50:18.945Z,40.98
2023-04-03T06:51:18.897Z,41.07
2023-04-03T06:52:17.884Z,41.03
2023-04-03T06:53:18.871Z,40.99
2023-04-03T06:54:18.875Z,40.91
2023-04-03T06:55:17.867Z,40.80
2023-04-03T06:56:18.872Z,40.85
2023-04-03T06:57:18.882Z,41.01
2023-04-03T06:58:19.922Z,40.98
2023-04-03T06:59:18.887Z,41.03
2023-04-03T07:00:17.853Z,41.08
2023-04-03T07:01:18.872Z,40.96
2023-04-03T07:02:18.848Z,41.04
2023-04-03T07:03:18.840Z,41.04
2023-04-03T07:04:18.838Z,40.89
2023-04-03T07:05:18.828Z,40.92
2023-04-03T07:06:18.839Z,40.99
2023-04-03T07:07:18.852Z,40.99
2023-04-03T07:08:18.805Z,40.88
2023-04-03T07:09:18.800Z,41.03
2023-04-03T07:10:18.792Z,40.99
2023-04-03T07:11:18.792Z,41.01
2023-04-03T07:12:17.789Z,40.88
2023-04-03T07:13:18.772Z,41.00
2023-04-03T07:14:18.773Z,40.95
2023-04-03T07:15:17.768Z,41.01
2023-04-03T07:16:18.794Z,40.99
2023-04-03T07:17:17.790Z,41.02
2023-04-03T07:18:18.731Z,40.98
2023-04-03T07:19:18.736Z,40.94
2023-04-03T07:20:18.719Z,41.07
2023-04-03T07:21:17.717Z,40.99
2023-04-03T07:22:18.779Z,40.97
2023-04-03T07:23:18.699Z,41.08
2023-04-03T07:24:17.702Z,41.00
2023-04-03T07:25:18.695Z,40.95
2023-04-03T07:26:17.698Z,40.91
2023-04-03T07:27:18.709Z,40.99
2023-04-03T07:28:17.675Z,40.98
2023-04-03T07:29:18.661Z,40.94
2023-04-03T07:30:18.669Z,40.92
2023-04-03T07:31:18.717Z,40.95
2023-04-03T07:32:18.741Z,40.95
2023-04-03T07:33:18.632Z,40.86
2023-04-03T07:34:18.626Z,40.87
2023-04-03T07:35:17.696Z,40.86
2023-04-03T07:36:18.658Z,40.86
2023-04-03T07:37:18.635Z,40.89
2023-04-03T07:38:17.689Z,40.89
2023-04-03T07:39:17.599Z,40.88
2023-04-03T07:40:18.974Z,40.88
2023-04-03T07:41:17.659Z,40.90
2023-04-03T07:42:17.575Z,40.88
2023-04-03T07:43:18.600Z,40.83
2023-04-03T07:44:18.571Z,40.90
2023-04-03T07:45:17.577Z,40.87
2023-04-03T07:46:17.658Z,40.78
2023-04-03T07:47:18.537Z,40.74
2023-04-03T07:48:18.527Z,40.73
2023-04-03T07:49:18.531Z,40.68
2023-04-03T07:50:18.519Z,40.76
2023-04-03T07:51:18.511Z,40.82
2023-04-03T07:52:18.525Z,40.71
2023-04-03T07:53:18.520Z,40.66
2023-04-03T07:54:18.533Z,40.78
2023-04-03T07:55:18.478Z,40.78
2023-04-03T07:56:18.473Z,40.82
2023-04-03T07:57:18.526Z,40.91
2023-04-03T07:58:17.460Z,40.78
2023-04-03T07:59:17.472Z,40.73
2023-04-03T08:00:17.497Z,40.86
2023-04-03T08:01:18.540Z,40.83
2023-04-03T08:02:18.730Z,40.82
2023-04-03T08:03:18.629Z,40.90
2023-04-03T08:04:18.629Z,40.90
2023-04-03T08:05:17.585Z,40.83
2023-04-03T08:06:21.624Z,40.84
2023-04-03T08:07:18.559Z,40.85
2023-04-03T08:08:18.607Z,40.82
2023-04-03T08:09:18.542Z,40.75
2023-04-03T08:10:18.686Z,40.72
2023-04-03T08:11:18.535Z,40.66
2023-04-03T08:12:17.526Z,40.75
2023-04-03T08:13:17.549Z,40.72
2023-04-03T08:14:18.555Z,40.65
2023-04-03T08:15:17.544Z,40.63
2023-04-03T08:16:18.639Z,40.60
2023-04-03T08:17:18.578Z,40.70
2023-04-03T08:18:18.588Z,40.64
2023-04-03T08:19:25.605Z,40.67
2023-04-03T08:20:18.591Z,40.61
2023-04-03T08:21:18.616Z,40.60
2023-04-03T08:22:17.590Z,40.64
2023-04-03T08:23:20.054Z,40.62
2023-04-03T08:24:17.727Z,40.57
2023-04-03T08:25:18.749Z,40.58
2023-04-03T08:26:18.785Z,40.57
2023-04-03T08:27:18.771Z,40.54
2023-04-03T08:28:18.778Z,40.49
2023-04-03T08:29:18.816Z,40.44
2023-04-03T08:30:18.810Z,40.45
2023-04-03T08:31:18.852Z,40.47
2023-04-03T08:32:17.872Z,40.53
2023-04-03T08:33:18.860Z,40.55
2023-04-03T08:34:18.900Z,40.47
2023-04-03T08:35:18.904Z,40.46
2023-04-03T08:36:18.955Z,40.49
2023-04-03T08:37:18.932Z,40.51
2023-04-03T08:38:18.933Z,40.45
2023-04-03T08:39:18.963Z,40.54
2023-04-03T08:40:18.983Z,40.60
2023-04-03T08:41:19.010Z,40.44
2023-04-03T08:42:19.118Z,40.44
2023-04-03T08:43:18.038Z,40.58
2023-04-03T08:44:18.061Z,40.53
2023-04-03T08:45:19.070Z,40.44
2023-04-03T08:46:19.131Z,40.49
2023-04-03T08:47:19.101Z,40.37
2023-04-03T08:48:19.122Z,40.44
2023-04-03T08:49:19.162Z,40.24
2023-04-03T08:50:19.137Z,40.41
2023-04-03T08:51:19.709Z,40.32
2023-04-03T08:52:19.157Z,40.46
2023-04-03T08:53:19.177Z,40.45
2023-04-03T08:54:19.172Z,40.35
2023-04-03T08:55:19.192Z,40.37
2023-04-03T08:56:19.217Z,40.30
2023-04-03T08:57:19.234Z,40.35
2023-04-03T08:58:19.380Z,40.17
2023-04-03T08:59:19.264Z,40.28
2023-04-03T09:00:19.283Z,40.41
2023-04-03T09:01:19.314Z,40.30
2023-04-03T09:02:19.288Z,40.37
2023-04-03T09:03:19.500Z,40.30
2023-04-03T09:04:19.471Z,40.35
2023-04-03T09:05:19.326Z,40.31
2023-04-03T09:06:19.340Z,40.30
2023-04-03T09:07:19.355Z,40.26
2023-04-03T09:08:19.357Z,40.37
2023-04-03T09:09:19.373Z,40.33
2023-04-03T09:10:19.446Z,40.34
2023-04-03T09:11:19.413Z,40.38
2023-04-03T09:12:19.423Z,40.29
2023-04-03T09:13:19.433Z,40.20
2023-04-03T09:14:19.554Z,40.25
2023-04-03T09:15:27.901Z,40.17
2023-04-03T09:16:19.553Z,40.31
2023-04-03T09:17:19.430Z,40.12
2023-04-03T09:18:19.424Z,40.17
2023-04-03T09:19:19.481Z,40.07
2023-04-03T09:20:20.991Z,40.12
2023-04-03T09:21:19.520Z,40.16
2023-04-03T09:22:19.408Z,40.20
2023-04-03T09:23:19.473Z,40.16
2023-04-03T09:24:19.407Z,40.06
2023-04-03T09:25:19.374Z,40.05
2023-04-03T09:26:19.375Z,40.23
2023-04-03T09:27:19.429Z,40.03
2023-04-03T09:28:19.357Z,40.06
2023-04-03T09:29:19.363Z,40.04
2023-04-03T09:30:19.571Z,40.08
2023-04-03T09:31:19.585Z,40.05
2023-04-03T09:32:18.324Z,40.11
2023-04-03T09:33:19.323Z,40.13
2023-04-03T09:34:19.318Z,40.11
2023-04-03T09:35:23.475Z,40.10
2023-04-03T09:36:19.324Z,39.97
2023-04-03T09:37:19.331Z,40.01
2023-04-03T09:38:19.299Z,39.93
2023-04-03T09:39:19.277Z,39.95
2023-04-03T09:40:19.273Z,39.89
2023-04-03T09:41:19.279Z,39.93
2023-04-03T09:42:19.264Z,39.88
2023-04-03T09:43:19.269Z,39.84
2023-04-03T09:44:19.241Z,39.82
2023-04-03T09:45:19.237Z,39.89
2023-04-03T09:46:20.700Z,39.93
2023-04-03T09:47:19.265Z,39.90
2023-04-03T09:48:19.316Z,39.85
2023-04-03T09:49:19.228Z,39.82
2023-04-03T09:50:19.207Z,39.98
2023-04-03T09:51:19.197Z,39.88
2023-04-03T09:52:19.187Z,39.89
2023-04-03T09:53:19.196Z,39.98
2023-04-03T09:54:19.181Z,39.84
2023-04-03T09:55:19.200Z,39.96
2023-04-03T09:56:19.194Z,39.92
2023-04-03T09:57:19.180Z,39.80
2023-04-03T09:58:19.153Z,39.80
2023-04-03T09:59:19.157Z,39.77
2023-04-03T10:00:19.132Z,39.75
2023-04-03T10:01:19.214Z,39.69
2023-04-03T10:02:19.220Z,39.73
2023-04-03T10:03:19.112Z,39.73
2023-04-03T10:04:19.107Z,39.81
2023-04-03T10:05:19.140Z,39.76
2023-04-03T10:06:19.121Z,39.66
2023-04-03T10:07:19.114Z,39.71
2023-04-03T10:08:19.069Z,39.70
2023-04-03T10:09:18.071Z,39.72
2023-04-03T10:10:19.054Z,39.76
2023-04-03T10:11:19.062Z,39.71
2023-04-03T10:12:19.042Z,39.72
2023-04-03T10:13:21.487Z,39.74
2023-04-03T10:14:19.039Z,39.58
2023-04-03T10:15:19.021Z,39.58
2023-04-03T10:16:18.072Z,39.62
2023-04-03T10:17:19.010Z,39.65
2023-04-03T10:18:24.412Z,39.66
2023-04-03T10:19:19.012Z,39.79
2023-04-03T10:20:18.992Z,39.62
2023-04-03T10:21:27.122Z,39.60
2023-04-03T10:22:18.981Z,39.66
2023-04-03T10:23:18.982Z,39.61
2023-04-03T10:24:18.957Z,39.57
2023-04-03T10:25:18.967Z,39.55
2023-04-03T10:26:18.943Z,39.54
2023-04-03T10:27:17.938Z,39.66
2023-04-03T10:28:18.930Z,39.54
2023-04-03T10:29:18.941Z,39.50
2023-04-03T10:30:18.925Z,39.48
2023-04-03T10:31:18.993Z,39.47
2023-04-03T10:32:18.913Z,39.48
2023-04-03T10:33:17.901Z,39.33
2023-04-03T10:34:19.006Z,39.39
2023-04-03T10:35:18.888Z,39.27
2023-04-03T10:36:17.888Z,39.31
2023-04-03T10:37:18.888Z,39.41
2023-04-03T10:38:18.863Z,39.37
2023-04-03T10:39:18.846Z,39.39
2023-04-03T10:40:18.854Z,39.31
2023-04-03T10:41:18.840Z,39.31
2023-04-03T10:42:18.853Z,39.27
2023-04-03T10:43:18.851Z,39.35
2023-04-03T10:44:17.837Z,39.40
2023-04-03T10:45:18.839Z,39.44
2023-04-03T10:46:18.855Z,39.38
2023-04-03T10:47:18.822Z,39.46
2023-04-03T10:48:18.846Z,39.40
2023-04-03T10:49:18.788Z,39.53
2023-04-03T10:50:18.915Z,39.57
2023-04-03T10:51:18.777Z,39.55
2023-04-03T10:52:18.786Z,39.49
2023-04-03T10:53:18.799Z,39.41
2023-04-03T10:54:18.774Z,39.63
2023-04-03T10:55:18.764Z,39.59
2023-04-03T10:56:18.757Z,39.59
2023-04-03T10:57:18.771Z,39.58
2023-04-03T10:58:18.770Z,39.63
2023-04-03T10:59:17.764Z,39.61
2023-04-03T11:00:18.737Z,39.70
2023-04-03T11:01:18.793Z,39.66
2023-04-03T11:02:18.738Z,39.61
2023-04-03T11:03:18.855Z,39.55
2023-04-03T11:04:18.703Z,39.48
2023-04-03T11:05:18.703Z,39.48
2023-04-03T11:06:18.847Z,39.39
2023-04-03T11:07:18.702Z,39.44
2023-04-03T11:08:18.730Z,39.33
2023-04-03T11:09:18.694Z,39.23
2023-04-03T11:10:17.705Z,39.31
2023-04-03T11:11:18.679Z,39.14
2023-04-03T11:12:18.656Z,39.27
2023-04-03T11:13:18.652Z,39.33
2023-04-03T11:14:18.658Z,39.23
2023-04-03T11:15:18.641Z,39.33
2023-04-03T11:16:17.638Z,39.23
2023-04-03T11:17:17.687Z,39.28
2023-04-03T11:18:18.612Z,39.36
2023-04-03T11:19:17.610Z,39.41
2023-04-03T11:20:18.600Z,39.32
2023-04-03T11:21:17.583Z,39.20
2023-04-03T11:22:18.709Z,39.28
2023-04-03T11:23:17.587Z,39.36
2023-04-03T11:24:18.589Z,39.24
2023-04-03T11:25:18.574Z,39.21
2023-04-03T11:26:18.546Z,39.12
2023-04-03T11:27:18.605Z,39.11
2023-04-03T11:28:18.550Z,39.19
2023-04-03T11:29:34.128Z,39.21
2023-04-03T11:30:18.534Z,39.32
2023-04-03T11:31:18.566Z,39.33
2023-04-03T11:32:18.531Z,39.36
2023-04-03T11:33:18.609Z,39.38
2023-04-03T11:34:17.508Z,39.20
2023-04-03T11:35:17.503Z,39.22
2023-04-03T11:36:26.335Z,39.36
2023-04-03T11:37:19.029Z,39.18
2023-04-03T11:38:18.598Z,39.26
2023-04-03T11:39:17.457Z,39.17
2023-04-03T11:40:18.464Z,39.12
2023-04-03T11:41:18.448Z,39.03
2023-04-03T11:42:18.458Z,39.14
2023-04-03T11:43:18.427Z,39.09
2023-04-03T11:44:18.438Z,39.13
2023-04-03T11:45:18.426Z,39.20
2023-04-03T11:46:17.452Z,39.17
2023-04-03T11:47:18.416Z,39.12
2023-04-03T11:48:24.949Z,39.26
2023-04-03T11:49:18.397Z,39.34
2023-04-03T11:50:18.385Z,39.46
2023-04-03T11:51:18.373Z,39.45
2023-04-03T11:52:17.376Z,39.31
2023-04-03T11:53:18.366Z,39.27
2023-04-03T11:54:18.482Z,39.21
2023-04-03T11:55:18.355Z,39.27
2023-04-03T11:56:18.347Z,39.51
2023-04-03T11:57:17.410Z,39.54
2023-04-03T11:58:17.331Z,39.37
2023-04-03T11:59:18.320Z,39.51
2023-04-03T12:00:18.328Z,39.54
2023-04-03T12:01:17.301Z,39.53
2023-04-03T12:02:18.361Z,39.49
2023-04-03T12:03:18.344Z,39.50
2023-04-03T12:04:18.350Z,39.46
2023-04-03T12:05:17.277Z,39.48
2023-04-03T12:06:18.281Z,39.47
2023-04-03T12:07:18.279Z,39.40
2023-04-03T12:08:19.022Z,39.49
2023-04-03T12:09:18.261Z,39.55
2023-04-03T12:10:28.679Z,39.77
2023-04-03T12:11:18.244Z,39.38
2023-04-03T12:12:18.224Z,39.38
2023-04-03T12:13:18.234Z,39.37
2023-04-03T12:14:18.217Z,39.51
2023-04-03T12:15:18.205Z,39.65
2023-04-03T12:16:18.215Z,39.51
2023-04-03T12:17:18.191Z,39.47
2023-04-03T12:18:18.195Z,39.52
2023-04-03T12:19:18.646Z,39.61
2023-04-03T12:20:17.170Z,39.63
2023-04-03T12:21:18.154Z,39.63
2023-04-03T12:22:18.175Z,39.64
2023-04-03T12:23:18.150Z,39.70
2023-04-03T12:24:18.173Z,39.65
2023-04-03T12:25:18.137Z,39.75
2023-04-03T12:26:18.247Z,39.77
2023-04-03T12:27:17.125Z,39.68
2023-04-03T12:28:17.113Z,39.49
2023-04-03T12:29:18.117Z,39.67
2023-04-03T12:30:17.111Z,39.62
2023-04-03T12:31:18.212Z,39.54
2023-04-03T12:32:18.089Z,39.56
2023-04-03T12:33:18.150Z,39.45
2023-04-03T12:34:17.084Z,39.46
2023-04-03T12:35:18.115Z,39.61
2023-04-03T12:36:18.118Z,39.45
2023-04-03T12:37:18.058Z,39.54
2023-04-03T12:38:18.049Z,39.49
2023-04-03T12:39:18.056Z,39.64
2023-04-03T12:40:18.041Z,39.60
2023-04-03T12:41:18.038Z,39.67
2023-04-03T12:42:18.168Z,39.70
2023-04-03T12:43:17.029Z,39.74
2023-04-03T12:44:17.016Z,39.58
2023-04-03T12:45:17.003Z,39.61
2023-04-03T12:46:18.113Z,39.66
2023-04-03T12:47:17.011Z,39.72
2023-04-03T12:48:16.993Z,39.69
2023-04-03T12:49:17.984Z,39.67
2023-04-03T12:50:17.980Z,39.59
2023-04-03T12:51:16.965Z,39.73
2023-04-03T12:52:17.972Z,39.62